Date,TemperatureHighF,TemperatureAvgF,TemperatureLowF,DewpointHighF,DewpointAvgF,DewpointLowF,HumidityHigh,HumidityAvg,HumidityLow,PressureMaxIn,PressureMinIn,WindSpeedMaxMPH,WindSpeedAvgMPH,GustSpeedMaxMPH,PrecipitationSumIn
2013-8-1,82.0,64.6,48.9,54.0,50.2,45.7,90,63,35,30.03,29.85,11,2,0,0.00
2013-8-2,84.4,63.7,46.4,58.5,51.9,44.9,95,69,35,29.94,29.76,9,2,0,0.00
2013-8-3,79.7,64.6,54.1,59.2,54.9,50.0,89,72,49,29.92,29.75,9,2,0,0.00
2013-8-4,78.1,64.8,57.0,58.6,55.4,51.9,89,73,47,29.94,29.79,8,2,0,0.00
2013-8-5,77.7,64.2,57.0,58.9,55.4,52.5,88,75,51,29.95,29.81,9,2,0,0.00
2013-8-6,79.3,64.5,56.7,59.0,54.7,51.6,88,72,46,29.97,29.87,8,3,0,0.00
2013-8-7,79.9,65.5,57.6,58.3,55.3,52.8,89,71,45,30.04,29.90,9,4,0,0.00
2013-8-8,75.9,63.6,53.8,59.5,55.3,50.6,91,76,55,29.95,29.82,11,3,0,0.00
2013-8-9,79.5,63.0,48.4,59.9,54.1,46.8,95,75,51,29.92,29.81,7,2,0,0.00
2013-8-10,82.2,66.3,58.5,61.9,56.9,54.2,87,73,48,29.99,29.84,11,2,0,0.00
2013-8-11,79.0,66.4,56.1,61.0,57.5,53.2,92,74,54,29.96,29.80,7,2,0,0.00
2013-8-12,89.4,67.6,57.9,61.9,57.6,50.0,94,74,26,29.94,29.79,8,2,0,0.00
2013-8-13,90.0,69.8,54.9,61.4,56.7,51.4,99,68,29,29.93,29.76,8,2,0,0.00
2013-8-14,85.1,66.6,49.6,60.9,55.5,47.7,94,71,35,29.94,29.85,10,2,0,0.00
2013-8-15,88.5,69.8,53.4,68.1,61.2,51.4,97,77,48,29.92,29.78,9,2,0,0.00
2013-8-16,90.5,71.9,61.3,66.5,60.4,48.1,97,72,28,29.94,29.83,8,2,0,0.00
2013-8-17,86.2,67.2,54.1,62.4,57.7,50.8,92,74,43,29.94,29.75,6,2,0,0.00
2013-8-18,94.5,73.5,59.2,65.3,61.0,57.2,96,69,34,29.82,29.58,8,2,0,0.00
2013-8-19,87.1,72.5,61.2,65.8,61.0,55.8,94,69,44,29.83,29.66,8,2,0,0.06
2013-8-20,83.5,69.0,60.1,63.9,59.8,54.7,95,75,47,29.83,29.75,7,2,0,0.00
2013-8-21,77.5,66.2,58.1,60.5,57.3,53.3,91,75,54,29.88,29.78,8,2,0,0.00
2013-8-22,78.6,65.2,55.0,59.7,55.8,52.1,91,73,50,29.93,29.83,9,3,0,0.00
2013-8-23,80.6,65.7,55.4,60.4,55.1,51.4,90,70,46,29.89,29.75,8,2,0,0.00
2013-8-24,84.6,66.4,50.0,61.4,55.9,47.7,93,72,43,29.85,29.78,9,2,0,0.00
2013-8-25,84.0,68.8,59.7,65.4,60.5,56.3,92,76,50,29.87,29.82,11,3,0,0.00
2013-8-26,83.1,67.9,57.6,61.1,56.3,49.4,90,69,42,29.95,29.84,8,2,0,0.00
2013-8-27,86.5,65.8,48.2,61.5,53.8,45.1,93,69,34,29.86,29.75,12,2,0,0.00
2013-8-28,85.3,67.2,51.3,65.9,59.2,49.7,96,78,48,29.88,29.80,8,2,0,0.00
2013-8-29,81.0,68.3,63.5,65.8,62.4,60.2,93,82,58,29.98,29.87,6,2,0,0.00
2013-8-31,84.2,75.5,64.6,62.7,58.8,55.3,85,57,41,29.93,29.81,8,3,0,0.00